LFLB 230900Z AUTO 03006KT 360V060 CAVOK 25/16 Q1016 NOSIG

ElémentsDécodage
LFLB Station météo située sur l'aérodrome de CHAMBERY Aix-les-Bains
230900Z émis le 23 du mois à 09h00 UTC
AUTO Bulletin édité par un automate
03006KT vent du 030°, 06 noeuds
360V060 vent de direction variable entre 360° et 060°
CAVOK Ceiling And Visibility OK
- Visibilité de 10 Km ou plus
- Pas de nuage au-dessous de 1500m ou au-dessous de l'altitude minimale du secteur la plus élevée (si>1500m) et absence de CB
- pas de temps présent significatif
25/16 température 25°C, point de rosée 16°C
 soit une humidité relative de 57%
Q1016 la pression au niveau de la mer (QNH) est de 1016 hPa
NOSIG Pas de changement significatif prévu au cours des deux heures suivant l'heure de l'observation